Strona główna
METAR-TAF:

METAR-TAF

Lotnisko :

Paso de los Libres, Argentyna

Szerokość geograficzna: 29-41S, Długość geograficzna: 057-09W, wysokość: 69 m

Aktualna obserwacja pogody

Raport powstał 9 godziny i 35 minut temu, godzina 23:00 UTC
Cisza
Temperatura 22°C
Wilgotność 100%
Ciśnienie 1014 hPa
Widzialność: 5000 m
Zachmurzenie całkowite na wysokości 3500 ft
Mało chmury na wysokości 4500 ft, Cumulonimbus.
burza, słaby deszcz

METAR: SARL 252300Z 00000KT 5000 -TSRA OVC035 FEW045CB 22/22 Q1014

czas: 05:35 (08:35 UTC)


TAF: brakujący

Obserwacja i prognoza pogody dla ponad 4000 lotnisk (raport METAR i TAF).

Dostępne stacje oznaczono żółtymi i czerwonymi punktami na mapie.

Najedź kursorem aby zobaczyć nazwę stacji.

Kliknij aby zobaczyć obserwacje i prognozy pogody.

Aby zmienić mapę: kliknij na zielony przycisk z czarnym krzyżykiem, aby powiększyć; na zielony przycisk z myślnikiem, aby pomniejszyć; na zielone strzałki, aby przejść do map sąsiednich.


METAR-TAF: